Airfield :
LOGIN :

Register | Disclaimer

   EN    FR    IT 

 










Legend :    VFR   Marginal VFR   IFR   Intensive IFR   Very Intensive IFR
Visi :
Ceiling :
>= 8 km
>= 3000ft
5 to 8 km
1000 to 3000 ft
1500m to 5 km
500 to 1000 ft
800 to 1500m
200 to 500 ft
< 800m
< 200 ft
Symbols :   Thunderstorms  Fog  Heavy snow  Heavy precipitations  Wind > 20 kt
SIGMETs :     Misc.  Thunderstorms  Icing  Turbulence  Mountain Waves  Volcanic Ashes







- Airport Elevation : 115 ft
- IATA code : HER


LGIR - Nikos Kazantzakis

CURRENT METAR :
  • 240420Z 22003KT CAVOK 21/14 Q1010 NOSIG

EXPIRED METARs :
  • 240350Z 23004KT CAVOK 19/11 Q1010 NOSIG
  • 240320Z 26006KT CAVOK 19/11 Q1010 NOSIG
  • 240250Z 24007KT CAVOK 19/11 Q1010 NOSIG
  • 240220Z 26009KT CAVOK 18/13 Q1010 NOSIG

TAF TAF LGIR
Valid from the 24 at 00:00 until the 25 at 00:00 UTC


232300Z 2400/2424 VRB05KT 9999 FEW020
BECMG 2400/2402 30015KT
BECMG 2406/2408 29015G25KT
No reported NOTAMs for that airfield.
1 SIGMET reported for the Athinai FIR (LGGG) :
 
Embedded thunderstorms
LGGG SIGMET 4 VALID 240420/240620 LGAT
LGGG ATHINAI FIR/UIR EMBD TS OBS E OF E02430 AND N OF N3930 STNR NC=



MET'MAP, your aeronautical weather chart ! - Copyright ORBIFLY December 2007 - Disclaimer

ORBIFLY MET'MAP TEAM :

Programming & Development : Alexandra Zaïnal
Concept & Development : Baudouin d'Aumeries
Co-Development & Prog : Marc-Olivier Méhu
Technical & hardware support : Manuel Goepfert

Contact : metmap@orbifly.com




SOURCES & CREDITS :

   NOAA